sensor_id;sensor_type;location;lat;lon;timestamp;P1;durP1;ratioP1;P2;durP2;ratioP2
7843;SDS011;3967;48.702;9.326;2023-07-20T00:00:03;2.17;;;1.37;;
7843;SDS011;3967;48.702;9.326;2023-07-20T00:02:30;1.63;;;1.50;;
7843;SDS011;3967;48.702;9.326;2023-07-20T00:04:57;1.83;;;1.20;;
7843;SDS011;3967;48.702;9.326;2023-07-20T00:07:23;1.93;;;1.13;;
7843;SDS011;3967;48.702;9.326;2023-07-20T00:09:51;9.07;;;1.80;;
7843;SDS011;3967;48.702;9.326;2023-07-20T00:12:17;2.03;;;1.40;;
7843;SDS011;3967;48.702;9.326;2023-07-20T00:14:44;2.97;;;1.50;;
7843;SDS011;3967;48.702;9.326;2023-07-20T00:17:11;2.63;;;1.20;;
7843;SDS011;3967;48.702;9.326;2023-07-20T00:19:38;2.30;;;1.50;;
7843;SDS011;3967;48.702;9.326;2023-07-20T00:22:05;2.67;;;1.40;;
7843;SDS011;3967;48.702;9.326;2023-07-20T00:24:31;1.50;;;1.40;;
7843;SDS011;3967;48.702;9.326;2023-07-20T00:26:58;2.17;;;1.30;;
7843;SDS011;3967;48.702;9.326;2023-07-20T00:29:27;2.47;;;1.30;;
7843;SDS011;3967;48.702;9.326;2023-07-20T00:31:54;1.87;;;1.40;;
7843;SDS011;3967;48.702;9.326;2023-07-20T00:34:21;1.97;;;1.50;;
7843;SDS011;3967;48.702;9.326;2023-07-20T00:36:47;1.57;;;1.10;;
7843;SDS011;3967;48.702;9.326;2023-07-20T00:39:15;2.33;;;1.20;;
7843;SDS011;3967;48.702;9.326;2023-07-20T00:41:42;1.40;;;1.30;;
7843;SDS011;3967;48.702;9.326;2023-07-20T00:44:09;2.70;;;1.50;;
7843;SDS011;3967;48.702;9.326;2023-07-20T00:46:36;1.60;;;1.30;;
7843;SDS011;3967;48.702;9.326;2023-07-20T00:49:02;2.23;;;1.40;;
7843;SDS011;3967;48.702;9.326;2023-07-20T00:51:30;1.80;;;1.57;;
7843;SDS011;3967;48.702;9.326;2023-07-20T00:53:57;2.57;;;1.83;;
7843;SDS011;3967;48.702;9.326;2023-07-20T00:56:24;2.17;;;1.50;;
7843;SDS011;3967;48.702;9.326;2023-07-20T00:58:52;1.97;;;1.60;;
7843;SDS011;3967;48.702;9.326;2023-07-20T01:01:19;3.40;;;1.70;;
7843;SDS011;3967;48.702;9.326;2023-07-20T01:03:46;1.57;;;1.40;;
7843;SDS011;3967;48.702;9.326;2023-07-20T01:14:05;1.60;;;1.50;;
7843;SDS011;3967;48.702;9.326;2023-07-20T01:16:33;6.50;;;2.57;;
7843;SDS011;3967;48.702;9.326;2023-07-20T01:19:00;4.13;;;1.43;;
7843;SDS011;3967;48.702;9.326;2023-07-20T01:21:31;2.80;;;1.30;;
7843;SDS011;3967;48.702;9.326;2023-07-20T01:24:10;1.40;;;1.30;;
7843;SDS011;3967;48.702;9.326;2023-07-20T01:27:11;3.13;;;1.40;;
7843;SDS011;3967;48.702;9.326;2023-07-20T01:32:27;2.40;;;1.40;;
7843;SDS011;3967;48.702;9.326;2023-07-20T01:34:55;2.90;;;1.50;;
7843;SDS011;3967;48.702;9.326;2023-07-20T01:37:24;2.27;;;1.77;;
7843;SDS011;3967;48.702;9.326;2023-07-20T01:39:55;2.13;;;1.47;;
7843;SDS011;3967;48.702;9.326;2023-07-20T01:42:22;2.30;;;1.30;;
7843;SDS011;3967;48.702;9.326;2023-07-20T01:44:51;2.63;;;1.30;;
7843;SDS011;3967;48.702;9.326;2023-07-20T01:47:20;2.20;;;1.33;;
7843;SDS011;3967;48.702;9.326;2023-07-20T01:49:47;2.13;;;1.20;;
7843;SDS011;3967;48.702;9.326;2023-07-20T01:52:14;1.77;;;1.60;;
7843;SDS011;3967;48.702;9.326;2023-07-20T01:54:41;1.50;;;1.10;;
7843;SDS011;3967;48.702;9.326;2023-07-20T01:57:08;1.80;;;1.33;;
7843;SDS011;3967;48.702;9.326;2023-07-20T01:59:35;1.97;;;1.23;;
7843;SDS011;3967;48.702;9.326;2023-07-20T02:02:03;2.20;;;1.30;;
7843;SDS011;3967;48.702;9.326;2023-07-20T02:04:29;2.57;;;1.50;;
7843;SDS011;3967;48.702;9.326;2023-07-20T02:06:56;1.43;;;1.33;;
7843;SDS011;3967;48.702;9.326;2023-07-20T02:09:23;2.20;;;1.50;;
7843;SDS011;3967;48.702;9.326;2023-07-20T02:11:50;2.23;;;1.67;;
7843;SDS011;3967;48.702;9.326;2023-07-20T02:14:16;2.13;;;1.57;;
7843;SDS011;3967;48.702;9.326;2023-07-20T02:16:43;2.97;;;1.70;;
7843;SDS011;3967;48.702;9.326;2023-07-20T02:19:10;1.80;;;1.70;;
7843;SDS011;3967;48.702;9.326;2023-07-20T02:21:37;2.17;;;1.40;;
7843;SDS011;3967;48.702;9.326;2023-07-20T02:24:05;1.63;;;1.40;;
7843;SDS011;3967;48.702;9.326;2023-07-20T02:26:33;2.00;;;1.80;;
7843;SDS011;3967;48.702;9.326;2023-07-20T02:28:59;2.63;;;1.63;;
7843;SDS011;3967;48.702;9.326;2023-07-20T02:31:26;3.43;;;1.53;;
7843;SDS011;3967;48.702;9.326;2023-07-20T02:33:53;1.87;;;1.77;;
7843;SDS011;3967;48.702;9.326;2023-07-20T02:36:19;5.47;;;1.53;;
7843;SDS011;3967;48.702;9.326;2023-07-20T02:38:46;2.63;;;1.60;;
7843;SDS011;3967;48.702;9.326;2023-07-20T02:41:13;3.97;;;1.40;;
7843;SDS011;3967;48.702;9.326;2023-07-20T02:43:40;2.70;;;1.60;;
7843;SDS011;3967;48.702;9.326;2023-07-20T02:46:07;2.40;;;1.30;;
7843;SDS011;3967;48.702;9.326;2023-07-20T02:48:33;1.47;;;1.37;;
7843;SDS011;3967;48.702;9.326;2023-07-20T02:51:01;2.83;;;1.50;;
7843;SDS011;3967;48.702;9.326;2023-07-20T02:53:27;1.43;;;1.20;;
7843;SDS011;3967;48.702;9.326;2023-07-20T02:55:54;2.00;;;1.40;;
7843;SDS011;3967;48.702;9.326;2023-07-20T02:58:21;1.83;;;1.37;;
7843;SDS011;3967;48.702;9.326;2023-07-20T03:00:47;2.07;;;1.87;;
7843;SDS011;3967;48.702;9.326;2023-07-20T03:03:14;2.10;;;1.40;;
7843;SDS011;3967;48.702;9.326;2023-07-20T03:05:41;2.17;;;1.97;;
7843;SDS011;3967;48.702;9.326;2023-07-20T03:08:08;2.27;;;1.40;;
7843;SDS011;3967;48.702;9.326;2023-07-20T03:10:38;2.20;;;1.37;;
7843;SDS011;3967;48.702;9.326;2023-07-20T03:13:06;2.17;;;1.53;;
7843;SDS011;3967;48.702;9.326;2023-07-20T03:15:34;1.83;;;1.53;;
7843;SDS011;3967;48.702;9.326;2023-07-20T03:18:01;1.77;;;1.53;;
7843;SDS011;3967;48.702;9.326;2023-07-20T03:20:29;2.40;;;1.50;;
7843;SDS011;3967;48.702;9.326;2023-07-20T03:22:55;1.60;;;1.50;;
7843;SDS011;3967;48.702;9.326;2023-07-20T03:25:22;3.70;;;1.73;;
7843;SDS011;3967;48.702;9.326;2023-07-20T03:27:52;3.43;;;1.93;;
7843;SDS011;3967;48.702;9.326;2023-07-20T03:30:19;2.10;;;1.90;;
7843;SDS011;3967;48.702;9.326;2023-07-20T03:32:46;2.20;;;1.50;;
7843;SDS011;3967;48.702;9.326;2023-07-20T03:35:13;3.23;;;1.80;;
7843;SDS011;3967;48.702;9.326;2023-07-20T03:37:41;2.57;;;1.30;;
7843;SDS011;3967;48.702;9.326;2023-07-20T03:40:09;2.70;;;1.60;;
7843;SDS011;3967;48.702;9.326;2023-07-20T03:42:36;2.23;;;1.53;;
7843;SDS011;3967;48.702;9.326;2023-07-20T03:45:05;2.70;;;1.60;;
7843;SDS011;3967;48.702;9.326;2023-07-20T03:47:32;2.13;;;1.50;;
7843;SDS011;3967;48.702;9.326;2023-07-20T03:49:59;3.00;;;1.70;;
7843;SDS011;3967;48.702;9.326;2023-07-20T03:52:26;1.83;;;1.53;;
7843;SDS011;3967;48.702;9.326;2023-07-20T03:54:52;2.07;;;1.70;;
7843;SDS011;3967;48.702;9.326;2023-07-20T03:57:19;1.60;;;1.50;;
7843;SDS011;3967;48.702;9.326;2023-07-20T03:59:46;2.10;;;1.63;;
7843;SDS011;3967;48.702;9.326;2023-07-20T04:02:14;2.50;;;1.43;;
7843;SDS011;3967;48.702;9.326;2023-07-20T04:04:41;1.87;;;1.60;;
7843;SDS011;3967;48.702;9.326;2023-07-20T04:07:08;2.50;;;1.80;;
7843;SDS011;3967;48.702;9.326;2023-07-20T04:09:35;3.33;;;1.50;;
7843;SDS011;3967;48.702;9.326;2023-07-20T04:12:02;1.77;;;1.53;;
7843;SDS011;3967;48.702;9.326;2023-07-20T04:14:28;2.77;;;1.60;;
7843;SDS011;3967;48.702;9.326;2023-07-20T04:16:55;3.67;;;1.80;;
7843;SDS011;3967;48.702;9.326;2023-07-20T04:19:22;3.90;;;1.80;;
7843;SDS011;3967;48.702;9.326;2023-07-20T04:21:49;6.77;;;1.77;;
7843;SDS011;3967;48.702;9.326;2023-07-20T04:24:15;2.03;;;1.67;;
7843;SDS011;3967;48.702;9.326;2023-07-20T04:26:42;2.40;;;1.57;;
7843;SDS011;3967;48.702;9.326;2023-07-20T04:29:09;2.40;;;1.40;;
7843;SDS011;3967;48.702;9.326;2023-07-20T04:31:36;2.73;;;1.50;;
7843;SDS011;3967;48.702;9.326;2023-07-20T04:34:02;4.83;;;1.50;;
7843;SDS011;3967;48.702;9.326;2023-07-20T04:36:29;2.03;;;1.63;;
7843;SDS011;3967;48.702;9.326;2023-07-20T04:38:56;1.93;;;1.40;;
7843;SDS011;3967;48.702;9.326;2023-07-20T04:41:23;2.00;;;1.67;;
7843;SDS011;3967;48.702;9.326;2023-07-20T04:43:51;2.40;;;1.37;;
7843;SDS011;3967;48.702;9.326;2023-07-20T04:46:17;2.20;;;1.53;;
7843;SDS011;3967;48.702;9.326;2023-07-20T04:48:45;3.83;;;1.60;;
7843;SDS011;3967;48.702;9.326;2023-07-20T04:51:12;2.33;;;1.60;;
7843;SDS011;3967;48.702;9.326;2023-07-20T04:53:38;3.90;;;1.80;;
7843;SDS011;3967;48.702;9.326;2023-07-20T04:56:05;2.00;;;1.80;;
7843;SDS011;3967;48.702;9.326;2023-07-20T04:58:32;1.93;;;1.60;;
7843;SDS011;3967;48.702;9.326;2023-07-20T05:00:58;2.03;;;1.33;;
7843;SDS011;3967;48.702;9.326;2023-07-20T05:03:25;3.57;;;1.73;;
7843;SDS011;3967;48.702;9.326;2023-07-20T05:05:52;1.57;;;1.40;;
7843;SDS011;3967;48.702;9.326;2023-07-20T05:08:20;3.80;;;1.63;;
7843;SDS011;3967;48.702;9.326;2023-07-20T05:10:48;3.57;;;1.80;;
7843;SDS011;3967;48.702;9.326;2023-07-20T05:13:15;4.10;;;1.63;;
7843;SDS011;3967;48.702;9.326;2023-07-20T05:15:42;2.43;;;1.97;;
7843;SDS011;3967;48.702;9.326;2023-07-20T05:18:09;2.30;;;2.10;;
7843;SDS011;3967;48.702;9.326;2023-07-20T05:20:35;2.30;;;2.10;;
7843;SDS011;3967;48.702;9.326;2023-07-20T05:23:03;2.80;;;1.47;;
7843;SDS011;3967;48.702;9.326;2023-07-20T05:25:30;7.20;;;1.83;;
7843;SDS011;3967;48.702;9.326;2023-07-20T05:27:57;1.57;;;1.30;;
7843;SDS011;3967;48.702;9.326;2023-07-20T05:30:24;2.73;;;1.80;;
7843;SDS011;3967;48.702;9.326;2023-07-20T05:32:51;2.27;;;1.87;;
7843;SDS011;3967;48.702;9.326;2023-07-20T05:35:20;2.27;;;1.40;;
7843;SDS011;3967;48.702;9.326;2023-07-20T05:37:47;2.63;;;1.30;;
7843;SDS011;3967;48.702;9.326;2023-07-20T05:40:14;2.83;;;1.33;;
7843;SDS011;3967;48.702;9.326;2023-07-20T05:42:45;3.07;;;1.50;;
7843;SDS011;3967;48.702;9.326;2023-07-20T05:45:13;1.60;;;1.33;;
7843;SDS011;3967;48.702;9.326;2023-07-20T05:47:43;2.00;;;1.57;;
7843;SDS011;3967;48.702;9.326;2023-07-20T05:50:10;3.37;;;1.70;;
7843;SDS011;3967;48.702;9.326;2023-07-20T05:52:37;2.93;;;1.50;;
7843;SDS011;3967;48.702;9.326;2023-07-20T05:55:05;2.20;;;1.47;;
7843;SDS011;3967;48.702;9.326;2023-07-20T05:57:35;1.40;;;1.30;;
7843;SDS011;3967;48.702;9.326;2023-07-20T06:00:02;5.20;;;1.70;;
7843;SDS011;3967;48.702;9.326;2023-07-20T06:02:29;2.60;;;1.37;;
7843;SDS011;3967;48.702;9.326;2023-07-20T06:04:56;3.47;;;1.73;;
7843;SDS011;3967;48.702;9.326;2023-07-20T06:07:23;3.50;;;1.70;;
7843;SDS011;3967;48.702;9.326;2023-07-20T06:09:50;2.60;;;1.60;;
7843;SDS011;3967;48.702;9.326;2023-07-20T06:12:16;2.20;;;1.37;;
7843;SDS011;3967;48.702;9.326;2023-07-20T06:14:43;2.47;;;1.40;;
7843;SDS011;3967;48.702;9.326;2023-07-20T06:17:10;2.53;;;1.67;;
7843;SDS011;3967;48.702;9.326;2023-07-20T06:19:37;2.80;;;1.60;;
7843;SDS011;3967;48.702;9.326;2023-07-20T06:22:03;3.80;;;1.53;;
7843;SDS011;3967;48.702;9.326;2023-07-20T06:24:30;2.70;;;1.87;;
7843;SDS011;3967;48.702;9.326;2023-07-20T06:26:57;3.43;;;1.47;;
7843;SDS011;3967;48.702;9.326;2023-07-20T06:29:24;4.40;;;1.30;;
7843;SDS011;3967;48.702;9.326;2023-07-20T06:31:50;2.87;;;1.37;;
7843;SDS011;3967;48.702;9.326;2023-07-20T06:34:18;1.40;;;1.30;;
7843;SDS011;3967;48.702;9.326;2023-07-20T06:36:49;3.83;;;1.63;;
7843;SDS011;3967;48.702;9.326;2023-07-20T06:39:16;2.17;;;1.27;;
7843;SDS011;3967;48.702;9.326;2023-07-20T06:41:45;2.10;;;1.20;;
7843;SDS011;3967;48.702;9.326;2023-07-20T06:44:12;1.97;;;1.33;;
7843;SDS011;3967;48.702;9.326;2023-07-20T06:46:39;3.20;;;1.67;;
7843;SDS011;3967;48.702;9.326;2023-07-20T06:49:06;2.07;;;1.40;;
7843;SDS011;3967;48.702;9.326;2023-07-20T06:51:37;1.43;;;1.13;;
7843;SDS011;3967;48.702;9.326;2023-07-20T06:54:03;3.57;;;1.40;;
7843;SDS011;3967;48.702;9.326;2023-07-20T06:56:30;3.50;;;1.40;;
7843;SDS011;3967;48.702;9.326;2023-07-20T06:58:59;2.80;;;1.20;;
7843;SDS011;3967;48.702;9.326;2023-07-20T07:01:25;1.47;;;1.13;;
7843;SDS011;3967;48.702;9.326;2023-07-20T07:03:53;2.30;;;1.50;;
7843;SDS011;3967;48.702;9.326;2023-07-20T07:06:21;1.27;;;0.97;;
7843;SDS011;3967;48.702;9.326;2023-07-20T07:08:50;1.63;;;1.17;;
7843;SDS011;3967;48.702;9.326;2023-07-20T07:11:18;1.30;;;1.10;;
7843;SDS011;3967;48.702;9.326;2023-07-20T07:13:45;3.20;;;1.23;;
7843;SDS011;3967;48.702;9.326;2023-07-20T07:16:15;4.47;;;1.33;;
7843;SDS011;3967;48.702;9.326;2023-07-20T07:18:46;2.27;;;1.47;;
7843;SDS011;3967;48.702;9.326;2023-07-20T07:21:13;1.83;;;1.20;;
7843;SDS011;3967;48.702;9.326;2023-07-20T07:23:40;2.20;;;1.37;;
7843;SDS011;3967;48.702;9.326;2023-07-20T07:26:07;3.03;;;1.20;;
7843;SDS011;3967;48.702;9.326;2023-07-20T07:28:33;1.40;;;1.27;;
7843;SDS011;3967;48.702;9.326;2023-07-20T07:31:00;2.17;;;1.30;;
7843;SDS011;3967;48.702;9.326;2023-07-20T07:33:30;2.60;;;1.50;;
7843;SDS011;3967;48.702;9.326;2023-07-20T07:35:57;1.77;;;1.27;;
7843;SDS011;3967;48.702;9.326;2023-07-20T07:38:27;3.47;;;1.30;;
7843;SDS011;3967;48.702;9.326;2023-07-20T07:41:14;4.87;;;1.77;;
7843;SDS011;3967;48.702;9.326;2023-07-20T07:43:41;9.77;;;2.27;;
7843;SDS011;3967;48.702;9.326;2023-07-20T07:46:07;3.80;;;1.60;;
7843;SDS011;3967;48.702;9.326;2023-07-20T07:48:34;2.70;;;1.23;;
7843;SDS011;3967;48.702;9.326;2023-07-20T07:51:01;3.77;;;1.37;;
7843;SDS011;3967;48.702;9.326;2023-07-20T07:53:28;1.57;;;1.40;;
7843;SDS011;3967;48.702;9.326;2023-07-20T07:55:55;3.33;;;1.13;;
7843;SDS011;3967;48.702;9.326;2023-07-20T07:58:21;3.27;;;1.27;;
7843;SDS011;3967;48.702;9.326;2023-07-20T08:00:48;1.67;;;1.30;;
7843;SDS011;3967;48.702;9.326;2023-07-20T08:03:15;2.07;;;1.23;;
7843;SDS011;3967;48.702;9.326;2023-07-20T08:05:42;3.23;;;1.40;;
7843;SDS011;3967;48.702;9.326;2023-07-20T08:08:09;2.90;;;1.40;;
7843;SDS011;3967;48.702;9.326;2023-07-20T08:10:36;2.47;;;1.27;;
7843;SDS011;3967;48.702;9.326;2023-07-20T08:13:02;1.97;;;1.10;;
7843;SDS011;3967;48.702;9.326;2023-07-20T08:15:29;3.37;;;1.33;;
7843;SDS011;3967;48.702;9.326;2023-07-20T08:17:56;3.57;;;2.00;;
7843;SDS011;3967;48.702;9.326;2023-07-20T08:20:23;4.10;;;1.83;;
7843;SDS011;3967;48.702;9.326;2023-07-20T08:22:54;2.10;;;1.30;;
7843;SDS011;3967;48.702;9.326;2023-07-20T08:25:21;2.67;;;1.30;;
7843;SDS011;3967;48.702;9.326;2023-07-20T08:27:48;6.73;;;1.50;;
7843;SDS011;3967;48.702;9.326;2023-07-20T08:30:15;2.33;;;1.43;;
7843;SDS011;3967;48.702;9.326;2023-07-20T08:32:41;2.43;;;1.43;;
7843;SDS011;3967;48.702;9.326;2023-07-20T08:35:08;2.43;;;1.50;;
7843;SDS011;3967;48.702;9.326;2023-07-20T08:37:35;1.50;;;1.40;;
7843;SDS011;3967;48.702;9.326;2023-07-20T08:40:02;1.43;;;1.20;;
7843;SDS011;3967;48.702;9.326;2023-07-20T08:42:30;1.80;;;1.30;;
7843;SDS011;3967;48.702;9.326;2023-07-20T08:44:57;5.87;;;1.60;;
7843;SDS011;3967;48.702;9.326;2023-07-20T08:47:24;3.47;;;1.40;;
7843;SDS011;3967;48.702;9.326;2023-07-20T08:49:52;2.00;;;1.25;;
7843;SDS011;3967;48.702;9.326;2023-07-20T08:52:21;2.20;;;1.92;;
7843;SDS011;3967;48.702;9.326;2023-07-20T08:54:48;1.20;;;1.10;;
7843;SDS011;3967;48.702;9.326;2023-07-20T08:57:16;4.27;;;1.40;;
7843;SDS011;3967;48.702;9.326;2023-07-20T08:59:44;3.28;;;1.38;;
7843;SDS011;3967;48.702;9.326;2023-07-20T09:02:12;1.58;;;1.25;;
7843;SDS011;3967;48.702;9.326;2023-07-20T09:04:46;1.90;;;1.33;;
7843;SDS011;3967;48.702;9.326;2023-07-20T09:07:13;5.32;;;1.20;;
7843;SDS011;3967;48.702;9.326;2023-07-20T09:09:41;2.92;;;1.55;;
7843;SDS011;3967;48.702;9.326;2023-07-20T09:12:13;2.35;;;1.67;;
7843;SDS011;3967;48.702;9.326;2023-07-20T09:14:42;1.23;;;1.08;;
7843;SDS011;3967;48.702;9.326;2023-07-20T09:17:13;3.00;;;1.50;;
7843;SDS011;3967;48.702;9.326;2023-07-20T09:19:47;3.53;;;1.50;;
7843;SDS011;3967;48.702;9.326;2023-07-20T09:22:14;4.22;;;1.73;;
7843;SDS011;3967;48.702;9.326;2023-07-20T09:24:41;3.05;;;1.70;;
7843;SDS011;3967;48.702;9.326;2023-07-20T09:27:10;1.45;;;1.35;;
7843;SDS011;3967;48.702;9.326;2023-07-20T09:29:55;3.65;;;1.48;;
7843;SDS011;3967;48.702;9.326;2023-07-20T09:32:23;3.13;;;1.27;;
7843;SDS011;3967;48.702;9.326;2023-07-20T09:34:51;4.57;;;1.35;;
7843;SDS011;3967;48.702;9.326;2023-07-20T09:37:22;1.50;;;1.33;;
7843;SDS011;3967;48.702;9.326;2023-07-20T09:39:51;1.55;;;1.40;;
7843;SDS011;3967;48.702;9.326;2023-07-20T09:42:24;3.28;;;1.30;;
7843;SDS011;3967;48.702;9.326;2023-07-20T09:44:55;1.67;;;1.00;;
7843;SDS011;3967;48.702;9.326;2023-07-20T09:47:23;2.28;;;1.15;;
7843;SDS011;3967;48.702;9.326;2023-07-20T09:49:58;1.52;;;1.38;;
7843;SDS011;3967;48.702;9.326;2023-07-20T09:52:31;3.30;;;1.23;;
7843;SDS011;3967;48.702;9.326;2023-07-20T09:55:00;2.88;;;1.45;;
7843;SDS011;3967;48.702;9.326;2023-07-20T09:57:29;2.25;;;1.23;;
7843;SDS011;3967;48.702;9.326;2023-07-20T09:59:56;1.67;;;1.40;;
7843;SDS011;3967;48.702;9.326;2023-07-20T10:02:45;3.22;;;1.10;;
7843;SDS011;3967;48.702;9.326;2023-07-20T10:05:13;1.70;;;1.23;;
7843;SDS011;3967;48.702;9.326;2023-07-20T10:07:50;2.28;;;1.30;;
7843;SDS011;3967;48.702;9.326;2023-07-20T10:10:40;1.67;;;1.23;;
7843;SDS011;3967;48.702;9.326;2023-07-20T10:13:10;6.75;;;1.40;;
7843;SDS011;3967;48.702;9.326;2023-07-20T10:15:46;1.83;;;1.40;;
7843;SDS011;3967;48.702;9.326;2023-07-20T10:20:52;1.45;;;1.35;;
7843;SDS011;3967;48.702;9.326;2023-07-20T10:23:24;4.30;;;1.48;;
7843;SDS011;3967;48.702;9.326;2023-07-20T10:25:51;1.50;;;1.30;;
7843;SDS011;3967;48.702;9.326;2023-07-20T10:28:19;3.03;;;1.63;;
7843;SDS011;3967;48.702;9.326;2023-07-20T10:30:49;2.25;;;1.40;;
7843;SDS011;3967;48.702;9.326;2023-07-20T10:33:17;2.05;;;1.10;;
7843;SDS011;3967;48.702;9.326;2023-07-20T10:35:52;1.33;;;1.23;;
7843;SDS011;3967;48.702;9.326;2023-07-20T10:38:42;1.30;;;1.20;;
7843;SDS011;3967;48.702;9.326;2023-07-20T10:41:27;1.20;;;1.10;;
7843;SDS011;3967;48.702;9.326;2023-07-20T10:43:57;1.85;;;1.00;;
7843;SDS011;3967;48.702;9.326;2023-07-20T10:49:06;2.42;;;1.20;;
7843;SDS011;3967;48.702;9.326;2023-07-20T10:51:45;1.77;;;1.20;;
7843;SDS011;3967;48.702;9.326;2023-07-20T10:56:44;2.22;;;0.90;;
7843;SDS011;3967;48.702;9.326;2023-07-20T10:59:18;3.95;;;1.20;;
7843;SDS011;3967;48.702;9.326;2023-07-20T11:01:46;1.70;;;1.13;;
7843;SDS011;3967;48.702;9.326;2023-07-20T11:04:16;1.13;;;1.00;;
7843;SDS011;3967;48.702;9.326;2023-07-20T11:06:45;4.53;;;1.00;;
7843;SDS011;3967;48.702;9.326;2023-07-20T11:09:13;1.42;;;1.08;;
7843;SDS011;3967;48.702;9.326;2023-07-20T11:14:25;2.65;;;1.13;;
7843;SDS011;3967;48.702;9.326;2023-07-20T11:16:52;1.63;;;1.05;;
7843;SDS011;3967;48.702;9.326;2023-07-20T11:19:20;1.13;;;1.05;;
7843;SDS011;3967;48.702;9.326;2023-07-20T11:21:55;1.98;;;1.45;;
7843;SDS011;3967;48.702;9.326;2023-07-20T11:24:29;2.05;;;0.80;;
7843;SDS011;3967;48.702;9.326;2023-07-20T11:26:56;0.88;;;0.80;;
7843;SDS011;3967;48.702;9.326;2023-07-20T11:29:23;1.27;;;0.90;;
7843;SDS011;3967;48.702;9.326;2023-07-20T11:31:58;1.65;;;1.00;;
7843;SDS011;3967;48.702;9.326;2023-07-20T11:34:26;1.02;;;0.93;;
7843;SDS011;3967;48.702;9.326;2023-07-20T11:36:54;1.20;;;1.10;;
7843;SDS011;3967;48.702;9.326;2023-07-20T11:39:24;1.83;;;1.10;;
7843;SDS011;3967;48.702;9.326;2023-07-20T11:41:55;3.90;;;1.05;;
7843;SDS011;3967;48.702;9.326;2023-07-20T11:44:24;2.08;;;0.90;;
7843;SDS011;3967;48.702;9.326;2023-07-20T11:46:59;9.15;;;1.20;;
7843;SDS011;3967;48.702;9.326;2023-07-20T11:49:36;5.72;;;1.63;;
7843;SDS011;3967;48.702;9.326;2023-07-20T11:52:08;3.45;;;1.08;;
7843;SDS011;3967;48.702;9.326;2023-07-20T11:54:40;3.55;;;1.10;;
7843;SDS011;3967;48.702;9.326;2023-07-20T11:57:18;1.95;;;0.90;;
7843;SDS011;3967;48.702;9.326;2023-07-20T11:59:55;2.17;;;1.05;;
7843;SDS011;3967;48.702;9.326;2023-07-20T12:02:30;1.10;;;0.90;;
7843;SDS011;3967;48.702;9.326;2023-07-20T12:04:57;6.53;;;1.10;;
7843;SDS011;3967;48.702;9.326;2023-07-20T12:07:28;3.13;;;1.17;;
7843;SDS011;3967;48.702;9.326;2023-07-20T12:10:08;1.63;;;0.90;;
7843;SDS011;3967;48.702;9.326;2023-07-20T12:12:39;2.63;;;0.90;;
7843;SDS011;3967;48.702;9.326;2023-07-20T12:15:23;1.85;;;0.90;;
7843;SDS011;3967;48.702;9.326;2023-07-20T12:18:01;1.75;;;1.08;;
7843;SDS011;3967;48.702;9.326;2023-07-20T12:20:32;0.70;;;0.70;;
7843;SDS011;3967;48.702;9.326;2023-07-20T12:23:05;1.10;;;1.00;;
7843;SDS011;3967;48.702;9.326;2023-07-20T12:25:39;0.95;;;0.80;;
7843;SDS011;3967;48.702;9.326;2023-07-20T12:28:11;0.90;;;0.80;;
7843;SDS011;3967;48.702;9.326;2023-07-20T12:30:41;1.38;;;0.70;;
7843;SDS011;3967;48.702;9.326;2023-07-20T12:33:10;3.25;;;1.20;;
7843;SDS011;3967;48.702;9.326;2023-07-20T12:35:38;1.67;;;1.15;;
7843;SDS011;3967;48.702;9.326;2023-07-20T12:38:05;1.10;;;1.00;;
7843;SDS011;3967;48.702;9.326;2023-07-20T12:40:33;2.83;;;0.90;;
7843;SDS011;3967;48.702;9.326;2023-07-20T12:42:59;1.75;;;1.00;;
7843;SDS011;3967;48.702;9.326;2023-07-20T12:45:26;1.05;;;0.95;;
7843;SDS011;3967;48.702;9.326;2023-07-20T12:47:53;1.92;;;1.10;;
7843;SDS011;3967;48.702;9.326;2023-07-20T12:50:20;1.33;;;0.95;;
7843;SDS011;3967;48.702;9.326;2023-07-20T12:52:47;1.20;;;1.00;;
7843;SDS011;3967;48.702;9.326;2023-07-20T12:55:14;6.50;;;1.20;;
7843;SDS011;3967;48.702;9.326;2023-07-20T12:57:41;0.80;;;0.80;;
7843;SDS011;3967;48.702;9.326;2023-07-20T13:00:09;2.20;;;0.90;;
7843;SDS011;3967;48.702;9.326;2023-07-20T13:02:37;1.20;;;1.10;;
7843;SDS011;3967;48.702;9.326;2023-07-20T13:05:05;1.75;;;0.88;;
7843;SDS011;3967;48.702;9.326;2023-07-20T13:07:32;2.92;;;0.90;;
7843;SDS011;3967;48.702;9.326;2023-07-20T13:10:03;1.98;;;0.90;;
7843;SDS011;3967;48.702;9.326;2023-07-20T13:12:31;1.42;;;0.80;;
7843;SDS011;3967;48.702;9.326;2023-07-20T13:15:02;2.10;;;0.93;;
7843;SDS011;3967;48.702;9.326;2023-07-20T13:17:32;0.93;;;0.70;;
7843;SDS011;3967;48.702;9.326;2023-07-20T13:20:03;2.67;;;1.20;;
7843;SDS011;3967;48.702;9.326;2023-07-20T13:22:32;0.90;;;0.90;;
7843;SDS011;3967;48.702;9.326;2023-07-20T13:24:59;1.42;;;0.98;;
7843;SDS011;3967;48.702;9.326;2023-07-20T13:27:26;2.28;;;0.90;;
7843;SDS011;3967;48.702;9.326;2023-07-20T13:29:53;3.30;;;0.90;;
7843;SDS011;3967;48.702;9.326;2023-07-20T13:32:20;0.90;;;0.90;;
7843;SDS011;3967;48.702;9.326;2023-07-20T13:34:46;2.28;;;1.00;;
7843;SDS011;3967;48.702;9.326;2023-07-20T13:37:14;0.90;;;0.90;;
7843;SDS011;3967;48.702;9.326;2023-07-20T13:39:42;1.00;;;1.00;;
7843;SDS011;3967;48.702;9.326;2023-07-20T13:42:10;1.00;;;0.90;;
7843;SDS011;3967;48.702;9.326;2023-07-20T13:44:38;1.40;;;1.05;;
7843;SDS011;3967;48.702;9.326;2023-07-20T13:47:05;2.05;;;0.80;;
7843;SDS011;3967;48.702;9.326;2023-07-20T13:49:35;2.25;;;0.90;;
7843;SDS011;3967;48.702;9.326;2023-07-20T13:52:13;1.30;;;1.00;;
7843;SDS011;3967;48.702;9.326;2023-07-20T13:54:43;0.80;;;0.70;;
7843;SDS011;3967;48.702;9.326;2023-07-20T13:57:13;2.33;;;0.90;;
7843;SDS011;3967;48.702;9.326;2023-07-20T13:59:41;4.40;;;1.30;;
7843;SDS011;3967;48.702;9.326;2023-07-20T14:02:08;0.95;;;0.88;;
7843;SDS011;3967;48.702;9.326;2023-07-20T14:04:38;1.23;;;1.00;;
7843;SDS011;3967;48.702;9.326;2023-07-20T14:07:05;1.10;;;0.98;;
7843;SDS011;3967;48.702;9.326;2023-07-20T14:09:32;6.38;;;1.00;;
7843;SDS011;3967;48.702;9.326;2023-07-20T14:11:59;3.05;;;1.20;;
7843;SDS011;3967;48.702;9.326;2023-07-20T14:14:28;1.75;;;0.98;;
7843;SDS011;3967;48.702;9.326;2023-07-20T14:16:55;1.77;;;1.05;;
7843;SDS011;3967;48.702;9.326;2023-07-20T14:19:22;1.55;;;1.10;;
7843;SDS011;3967;48.702;9.326;2023-07-20T14:21:49;1.35;;;0.82;;
7843;SDS011;3967;48.702;9.326;2023-07-20T14:24:16;1.52;;;0.70;;
7843;SDS011;3967;48.702;9.326;2023-07-20T14:26:44;1.50;;;0.90;;
7843;SDS011;3967;48.702;9.326;2023-07-20T14:29:13;0.88;;;0.70;;
7843;SDS011;3967;48.702;9.326;2023-07-20T14:31:40;3.15;;;1.08;;
7843;SDS011;3967;48.702;9.326;2023-07-20T14:34:08;0.60;;;0.60;;
7843;SDS011;3967;48.702;9.326;2023-07-20T14:36:35;2.40;;;0.95;;
7843;SDS011;3967;48.702;9.326;2023-07-20T14:39:02;1.85;;;0.90;;
7843;SDS011;3967;48.702;9.326;2023-07-20T14:41:31;10.13;;;1.77;;
7843;SDS011;3967;48.702;9.326;2023-07-20T14:43:58;2.08;;;0.80;;
7843;SDS011;3967;48.702;9.326;2023-07-20T14:46:24;2.45;;;0.90;;
7843;SDS011;3967;48.702;9.326;2023-07-20T14:48:52;1.15;;;0.93;;
7843;SDS011;3967;48.702;9.326;2023-07-20T14:51:19;1.42;;;0.88;;
7843;SDS011;3967;48.702;9.326;2023-07-20T14:53:45;1.20;;;1.00;;
7843;SDS011;3967;48.702;9.326;2023-07-20T14:56:12;1.88;;;0.98;;
7843;SDS011;3967;48.702;9.326;2023-07-20T14:58:39;1.23;;;0.70;;
7843;SDS011;3967;48.702;9.326;2023-07-20T15:01:06;2.13;;;0.93;;
7843;SDS011;3967;48.702;9.326;2023-07-20T15:03:33;2.10;;;1.00;;
7843;SDS011;3967;48.702;9.326;2023-07-20T15:06:00;1.40;;;0.85;;
7843;SDS011;3967;48.702;9.326;2023-07-20T15:08:27;0.80;;;0.80;;
7843;SDS011;3967;48.702;9.326;2023-07-20T15:10:54;1.85;;;1.05;;
7843;SDS011;3967;48.702;9.326;2023-07-20T15:13:21;2.08;;;0.98;;
7843;SDS011;3967;48.702;9.326;2023-07-20T15:15:48;1.50;;;1.40;;
7843;SDS011;3967;48.702;9.326;2023-07-20T15:18:15;3.40;;;1.23;;
7843;SDS011;3967;48.702;9.326;2023-07-20T15:20:42;1.38;;;1.13;;
7843;SDS011;3967;48.702;9.326;2023-07-20T15:23:09;2.13;;;1.02;;
7843;SDS011;3967;48.702;9.326;2023-07-20T15:25:36;0.73;;;0.73;;
7843;SDS011;3967;48.702;9.326;2023-07-20T15:28:03;2.22;;;0.80;;
7843;SDS011;3967;48.702;9.326;2023-07-20T15:30:30;1.17;;;1.08;;
7843;SDS011;3967;48.702;9.326;2023-07-20T15:33:00;2.78;;;1.00;;
7843;SDS011;3967;48.702;9.326;2023-07-20T15:35:29;1.33;;;0.70;;
7843;SDS011;3967;48.702;9.326;2023-07-20T15:37:56;1.10;;;1.00;;
7843;SDS011;3967;48.702;9.326;2023-07-20T15:40:25;1.17;;;0.80;;
7843;SDS011;3967;48.702;9.326;2023-07-20T15:42:52;3.90;;;0.90;;